Time;durP1;ratioP1;P1;durP2;ratioP2;P2;SDS_P1;SDS_P2;PMS_P1;PMS_P2;Temp;Humidity;BMP_temperature;BMP_pressure;BME280_temperature;BME280_humidity;BME280_pressure;Samples;Min_cycle;Max_cycle;Signal;HPM_P1;HPM_P2
2022/09/27 00:00:08;;;;;;;11.23;7.80;;;13.70;99.90;;;;;;5022912;28;20197;-65
2022/09/27 00:02:35;;;;;;;13.10;7.85;;;13.80;99.90;;;;;;5019644;28;20229;-65
2022/09/27 00:05:02;;;;;;;14.73;7.95;;;13.80;99.90;;;;;;5002099;28;20218;-65
2022/09/27 00:07:29;;;;;;;11.88;7.90;;;13.70;99.90;;;;;;4998588;28;20213;-66
2022/09/27 00:09:56;;;;;;;12.30;8.13;;;13.90;99.90;;;;;;5008052;28;20206;-66
2022/09/27 00:12:22;;;;;;;12.13;7.38;;;12.70;99.90;;;;;;4984938;28;21122;-65
2022/09/27 00:14:51;;;;;;;11.13;7.30;;;13.80;99.90;;;;;;5010920;28;20207;-65
2022/09/27 00:17:17;;;;;;;10.60;7.78;;;13.80;99.90;;;;;;4995262;28;20222;-65
2022/09/27 00:19:44;;;;;;;10.50;7.72;;;13.60;99.90;;;;;;4996401;28;20203;-65
2022/09/27 00:22:11;;;;;;;12.25;8.02;;;13.70;99.90;;;;;;5010037;28;20230;-65
2022/09/27 00:24:38;;;;;;;11.10;7.47;;;13.60;99.90;;;;;;4999082;28;20221;-66
2022/09/27 00:27:05;;;;;;;10.15;7.50;;;13.50;99.90;;;;;;5010828;28;20685;-65
2022/09/27 00:29:32;;;;;;;17.83;7.68;;;13.70;99.90;;;;;;4986081;28;20222;-65
2022/09/27 00:32:00;;;;;;;10.27;7.45;;;13.70;99.90;;;;;;4998179;28;21084;-66
2022/09/27 00:34:27;;;;;;;10.27;7.50;;;13.70;99.90;;;;;;4993974;28;20205;-65
2022/09/27 00:36:54;;;;;;;11.68;6.90;;;15.00;99.90;;;;;;5012291;28;20318;-66
2022/09/27 00:39:21;;;;;;;9.63;7.22;;;13.70;99.90;;;;;;4998555;28;20611;-65
2022/09/27 00:41:48;;;;;;;15.65;7.32;;;13.40;99.90;;;;;;5002554;28;20256;-65
2022/09/27 00:44:52;;;;;;;11.15;6.43;;;13.60;99.90;;;;;;4988415;28;20206;-65
2022/09/27 00:47:27;;;;;;;10.57;6.63;;;13.60;99.90;;;;;;5000437;28;20213;-66
2022/09/27 00:49:58;;;;;;;9.68;6.45;;;13.60;99.90;;;;;;5024488;28;20198;-65
2022/09/27 00:52:29;;;;;;;11.32;5.97;;;13.50;99.90;;;;;;5013608;28;21508;-66
2022/09/27 00:55:00;;;;;;;10.10;5.90;;;13.50;99.90;;;;;;5000202;28;20209;-64
2022/09/27 00:57:28;;;;;;;9.98;5.63;;;13.50;99.90;;;;;;4996848;28;20210;-65
2022/09/27 01:00:00;;;;;;;6.50;5.05;;;13.40;99.90;;;;;;4988510;28;20217;-65
2022/09/27 01:02:29;;;;;;;9.88;5.85;;;13.50;99.90;;;;;;5007605;28;20229;-66
2022/09/27 01:04:56;;;;;;;10.18;5.63;;;13.40;99.90;;;;;;5000141;28;20212;-65
2022/09/27 01:07:23;;;;;;;8.02;5.30;;;13.60;99.90;;;;;;4997761;28;20841;-65
2022/09/27 01:09:50;;;;;;;16.42;5.47;;;13.40;99.90;;;;;;4998153;28;20205;-65
2022/09/27 01:12:23;;;;;;;9.90;5.45;;;13.40;99.90;;;;;;5002275;28;20346;-65
2022/09/27 01:15:07;;;;;;;8.50;5.10;;;12.90;99.90;;;;;;5013320;28;20218;-65
2022/09/27 01:17:47;;;;;;;8.55;5.05;;;13.20;99.90;;;;;;5004014;28;20237;-65
2022/09/27 01:20:40;;;;;;;11.00;5.82;;;13.30;99.90;;;;;;5011983;28;20681;-65
2022/09/27 01:23:33;;;;;;;7.90;5.22;;;13.30;99.90;;;;;;5013413;28;20682;-64
2022/09/27 01:26:13;;;;;;;10.25;5.40;;;13.30;99.90;;;;;;4997603;28;20201;-66
2022/09/27 01:28:51;;;;;;;7.68;4.75;;;13.40;99.90;;;;;;5016387;28;20228;-65
2022/09/27 01:31:27;;;;;;;7.47;4.78;;;13.30;99.90;;;;;;4995462;28;20213;-65
2022/09/27 01:34:03;;;;;;;10.95;4.60;;;13.30;99.90;;;;;;5018478;28;20200;-66
2022/09/27 01:36:42;;;;;;;8.48;5.03;;;13.20;99.90;;;;;;5005123;28;20205;-65
2022/09/27 01:39:22;;;;;;;8.20;4.18;;;13.20;99.90;;;;;;5008932;28;20229;-65
2022/09/27 01:42:01;;;;;;;5.45;4.13;;;13.30;99.90;;;;;;5009585;28;20229;-65
2022/09/27 01:44:35;;;;;;;11.40;4.40;;;13.20;99.90;;;;;;5018141;28;20582;-65
2022/09/27 01:47:05;;;;;;;8.07;4.68;;;13.10;99.90;;;;;;4991352;28;20231;-66
2022/09/27 01:49:36;;;;;;;5.10;3.50;;;13.00;99.90;;;;;;5022901;28;20194;-65
2022/09/27 01:52:07;;;;;;;6.03;3.10;;;14.80;99.90;;;;;;5005489;28;20208;-65
2022/09/27 01:54:40;;;;;;;6.03;3.63;;;13.10;99.90;;;;;;5007166;28;20205;-65
2022/09/27 01:57:11;;;;;;;5.40;3.40;;;13.00;99.90;;;;;;5007025;28;20215;-65
2022/09/27 01:59:44;;;;;;;4.50;2.78;;;13.10;99.90;;;;;;5018583;28;20224;-65
2022/09/27 02:02:14;;;;;;;6.55;3.00;;;13.10;99.90;;;;;;4993868;28;22191;-65
2022/09/27 02:04:43;;;;;;;2.83;2.15;;;13.10;99.90;;;;;;5021575;28;20990;-65
2022/09/27 02:07:15;;;;;;;4.70;2.72;;;13.10;99.90;;;;;;4999513;28;20297;-65
2022/09/27 02:09:47;;;;;;;4.07;2.58;;;13.10;99.90;;;;;;5010031;28;20202;-65
2022/09/27 02:12:18;;;;;;;5.97;2.53;;;13.00;99.90;;;;;;5019532;28;20215;-65
2022/09/27 02:14:49;;;;;;;3.88;2.42;;;13.10;99.90;;;;;;5013507;28;20663;-65
2022/09/27 02:17:23;;;;;;;3.63;2.08;;;13.10;99.90;;;;;;5017705;28;20710;-66
2022/09/27 02:19:56;;;;;;;3.78;1.95;;;13.10;99.90;;;;;;4996255;28;20212;-65
2022/09/27 02:22:31;;;;;;;3.25;2.30;;;12.80;99.90;;;;;;5009695;28;20236;-65
2022/09/27 02:25:02;;;;;;;4.88;2.33;;;13.00;99.90;;;;;;5008995;28;20229;-65
2022/09/27 02:27:34;;;;;;;5.32;2.53;;;13.10;99.90;;;;;;5018230;28;20983;-65
2022/09/27 02:30:04;;;;;;;5.13;2.47;;;12.90;99.90;;;;;;5006633;28;20213;-65
2022/09/27 02:32:33;;;;;;;4.90;2.13;;;14.20;99.90;;;;;;5018125;28;20197;-66
2022/09/27 02:35:05;;;;;;;1.90;1.77;;;13.00;99.90;;;;;;4980841;28;20206;-66
2022/09/27 02:37:33;;;;;;;7.72;1.85;;;13.00;99.90;;;;;;5004489;28;21017;-66
2022/09/27 02:40:03;;;;;;;2.00;1.77;;;13.00;99.90;;;;;;5006317;28;20224;-65
2022/09/27 02:42:31;;;;;;;5.38;1.70;;;13.40;99.90;;;;;;5010138;28;20601;-65
2022/09/27 02:44:58;;;;;;;1.55;1.38;;;12.90;99.90;;;;;;5007911;28;20209;-66
2022/09/27 02:47:42;;;;;;;3.85;1.30;;;13.00;99.90;;;;;;5018332;28;20198;-65
2022/09/27 02:50:32;;;;;;;3.72;1.70;;;13.10;99.90;;;;;;4997671;28;20484;-66
2022/09/27 02:53:07;;;;;;;2.90;1.70;;;14.10;99.90;;;;;;5011068;28;20229;-65
2022/09/27 02:55:49;;;;;;;3.25;1.50;;;13.00;99.90;;;;;;5013524;28;20285;-65
2022/09/27 02:58:27;;;;;;;3.92;1.55;;;13.00;99.90;;;;;;5024767;28;20194;-65
2022/09/27 03:01:02;;;;;;;5.10;1.70;;;12.90;99.90;;;;;;4997837;28;20212;-66
2022/09/27 03:03:36;;;;;;;5.28;1.40;;;12.90;99.90;;;;;;5012225;28;20731;-65
2022/09/27 03:06:06;;;;;;;2.67;1.70;;;12.90;99.90;;;;;;4980034;28;20221;-66
2022/09/27 03:08:33;;;;;;;5.10;1.33;;;12.90;99.90;;;;;;5008730;28;20621;-66
2022/09/27 03:11:00;;;;;;;1.98;1.33;;;12.80;99.90;;;;;;5008708;28;20201;-65
2022/09/27 03:13:27;;;;;;;1.27;1.08;;;12.90;99.90;;;;;;5018645;28;20202;-66
2022/09/27 03:15:54;;;;;;;1.33;1.10;;;13.50;99.90;;;;;;5013925;28;20655;-65
2022/09/27 03:18:21;;;;;;;1.70;1.10;;;12.80;99.90;;;;;;5015233;28;20226;-66
2022/09/27 03:20:49;;;;;;;2.85;0.93;;;12.90;99.90;;;;;;5001592;28;20212;-66
2022/09/27 03:23:16;;;;;;;1.35;1.02;;;12.80;99.90;;;;;;5010584;28;20232;-66
2022/09/27 03:25:43;;;;;;;2.10;1.00;;;12.70;99.90;;;;;;5013360;28;20296;-66
2022/09/27 03:28:10;;;;;;;2.58;0.90;;;12.60;99.90;;;;;;5025144;28;20209;-65
2022/09/27 03:30:36;;;;;;;2.00;0.93;;;12.90;99.90;;;;;;5001229;28;20301;-65
2022/09/27 03:33:04;;;;;;;2.17;0.93;;;12.70;99.90;;;;;;5015053;28;20232;-65
2022/09/27 03:35:31;;;;;;;2.03;0.90;;;12.80;99.90;;;;;;5013562;28;20216;-65
2022/09/27 03:37:59;;;;;;;1.85;0.85;;;12.60;99.90;;;;;;4977838;28;20221;-65
2022/09/27 03:40:26;;;;;;;3.58;0.82;;;12.70;99.90;;;;;;5000773;28;20198;-65
2022/09/27 03:42:52;;;;;;;1.65;0.95;;;12.90;99.90;;;;;;5011482;28;20221;-66
2022/09/27 03:45:19;;;;;;;2.45;1.00;;;12.70;99.90;;;;;;5003626;28;20205;-66
2022/09/27 03:47:47;;;;;;;1.73;0.90;;;12.50;99.90;;;;;;5018875;28;20259;-65
2022/09/27 03:50:14;;;;;;;1.13;1.02;;;12.70;99.90;;;;;;5013073;28;20243;-65
2022/09/27 03:52:42;;;;;;;1.88;1.27;;;12.80;99.90;;;;;;5000442;28;20213;-65
2022/09/27 03:55:12;;;;;;;2.00;1.20;;;12.70;99.90;;;;;;4995943;28;21829;-65
2022/09/27 03:57:39;;;;;;;6.05;1.23;;;12.70;99.90;;;;;;5009250;28;20212;-65
2022/09/27 04:00:07;;;;;;;1.67;1.27;;;12.90;99.90;;;;;;5018643;28;20218;-65
2022/09/27 04:02:34;;;;;;;6.20;1.65;;;;;;;;;;4995242;28;20232;-65
2022/09/27 04:05:01;;;;;;;1.48;1.35;;;12.70;99.90;;;;;;5019012;28;20227;-65
2022/09/27 04:07:29;;;;;;;2.63;1.60;;;12.90;99.90;;;;;;4994513;28;22193;-66
2022/09/27 04:09:56;;;;;;;2.22;1.63;;;12.70;99.90;;;;;;5012040;28;20204;-66
2022/09/27 04:12:24;;;;;;;3.38;1.60;;;12.90;99.90;;;;;;5014952;28;20193;-66
2022/09/27 04:14:51;;;;;;;6.07;1.85;;;12.80;99.90;;;;;;5025828;28;20232;-66
2022/09/27 04:17:18;;;;;;;2.08;1.60;;;12.80;99.90;;;;;;5015874;23;20700;-65
2022/09/27 04:19:45;;;;;;;3.83;1.63;;;12.80;99.90;;;;;;5027863;22;20228;-66
2022/09/27 04:22:12;;;;;;;5.35;1.95;;;13.00;99.90;;;;;;5005996;28;20237;-65
2022/09/27 04:24:39;;;;;;;3.85;1.65;;;12.80;99.90;;;;;;4965594;28;20323;-66
2022/09/27 04:27:06;;;;;;;4.75;1.60;;;12.80;99.90;;;;;;5006317;28;20209;-66
2022/09/27 04:29:35;;;;;;;8.35;1.77;;;12.80;99.90;;;;;;4971648;28;20238;-66
2022/09/27 04:32:02;;;;;;;2.83;1.92;;;13.00;99.90;;;;;;4998928;28;20222;-64
2022/09/27 04:37:10;;;;;;;5.97;2.00;;;12.90;99.90;;;;;;5022358;28;20225;-66
2022/09/27 04:39:44;;;;;;;7.30;1.90;;;14.00;99.90;;;;;;5002435;28;22138;-66
2022/09/27 04:42:11;;;;;;;3.03;2.10;;;12.90;99.90;;;;;;5040634;28;20235;-65
2022/09/27 04:44:40;;;;;;;6.88;1.83;;;12.80;99.90;;;;;;5033811;28;20215;-66
2022/09/27 04:47:06;;;;;;;1.77;1.40;;;12.70;99.90;;;;;;5045573;28;20217;-66
2022/09/27 04:49:33;;;;;;;2.03;1.45;;;12.70;99.90;;;;;;5035136;28;20197;-66
2022/09/27 04:52:00;;;;;;;1.50;1.40;;;12.70;99.90;;;;;;5033610;28;20231;-66
2022/09/27 04:54:28;;;;;;;3.63;1.77;;;12.70;99.90;;;;;;5005281;28;20221;-65
2022/09/27 04:56:55;;;;;;;2.35;1.48;;;11.30;99.90;;;;;;5035431;28;20225;-65
2022/09/27 04:59:22;;;;;;;4.50;1.58;;;12.60;99.90;;;;;;5032882;28;20209;-65
2022/09/27 05:01:50;;;;;;;4.18;1.52;;;12.80;99.90;;;;;;5033892;28;20223;-66
2022/09/27 05:04:17;;;;;;;1.55;1.13;;;12.50;99.90;;;;;;5021457;28;20816;-65
2022/09/27 05:06:43;;;;;;;4.13;1.30;;;12.60;99.90;;;;;;5029520;28;20201;-65
2022/09/27 05:09:10;;;;;;;2.78;1.33;;;12.50;99.90;;;;;;5031034;28;20329;-65
2022/09/27 05:11:37;;;;;;;3.90;1.95;;;12.50;99.90;;;;;;5005562;28;20697;-66
2022/09/27 05:14:05;;;;;;;2.08;1.20;;;12.60;99.90;;;;;;5044421;28;20280;-66
2022/09/27 05:16:34;;;;;;;5.38;1.60;;;12.60;99.90;;;;;;5028459;28;20229;-66
2022/09/27 05:19:05;;;;;;;3.35;1.67;;;12.60;99.90;;;;;;5017302;28;20246;-66
2022/09/27 05:21:32;;;;;;;2.53;1.30;;;12.60;99.90;;;;;;5003731;28;20252;-65
2022/09/27 05:24:00;;;;;;;4.13;1.40;;;12.50;99.90;;;;;;5008755;28;20236;-66
2022/09/27 05:26:26;;;;;;;3.85;1.42;;;12.50;99.90;;;;;;4991976;28;20226;-65
2022/09/27 05:28:53;;;;;;;3.58;1.60;;;12.60;99.90;;;;;;5015220;28;20248;-65
2022/09/27 05:31:20;;;;;;;3.08;1.40;;;11.80;99.90;;;;;;5006961;28;20600;-65
2022/09/27 05:33:47;;;;;;;6.55;1.90;;;12.40;99.90;;;;;;5016533;28;20224;-65
2022/09/27 05:36:15;;;;;;;3.83;1.65;;;12.30;99.90;;;;;;5010829;28;20418;-65
2022/09/27 05:38:42;;;;;;;2.10;1.55;;;12.40;99.90;;;;;;5019910;28;20689;-65
2022/09/27 05:41:09;;;;;;;1.48;1.38;;;11.50;99.90;;;;;;5017085;28;20873;-66
2022/09/27 05:43:36;;;;;;;3.83;1.60;;;12.40;99.90;;;;;;4989710;28;20225;-65
2022/09/27 05:46:04;;;;;;;5.15;1.55;;;12.40;99.90;;;;;;5009022;28;21027;-66
2022/09/27 05:48:31;;;;;;;2.33;0.95;;;12.40;99.90;;;;;;5010048;28;20572;-65
2022/09/27 05:50:58;;;;;;;1.63;1.50;;;12.40;99.90;;;;;;5006025;28;20213;-66
2022/09/27 05:53:26;;;;;;;3.70;1.45;;;12.30;99.90;;;;;;5010293;28;20206;-66
2022/09/27 05:55:53;;;;;;;2.17;1.25;;;12.30;99.90;;;;;;5017585;28;20197;-66
2022/09/27 05:58:19;;;;;;;1.30;1.20;;;12.40;99.90;;;;;;4999363;28;20209;-65
2022/09/27 06:00:46;;;;;;;2.25;1.20;;;12.30;99.90;;;;;;5024059;28;20197;-66
2022/09/27 06:03:13;;;;;;;2.05;1.10;;;12.30;99.90;;;;;;5003474;28;20377;-66
2022/09/27 06:05:41;;;;;;;3.28;1.42;;;12.30;99.90;;;;;;5015232;28;20206;-66
2022/09/27 06:08:10;;;;;;;2.85;1.38;;;12.60;99.90;;;;;;5001920;28;20592;-66
2022/09/27 06:10:40;;;;;;;2.50;1.67;;;12.40;99.90;;;;;;5004521;28;20229;-65
2022/09/27 06:13:08;;;;;;;3.60;1.52;;;;;;;;;;5015459;28;20221;-66
2022/09/27 06:15:38;;;;;;;2.97;1.70;;;12.40;99.90;;;;;;5000184;28;20400;-66
2022/09/27 06:18:06;;;;;;;1.30;1.20;;;12.60;99.90;;;;;;5023716;28;20221;-66
2022/09/27 06:20:34;;;;;;;4.00;1.50;;;12.70;99.90;;;;;;5004851;28;20608;-65
2022/09/27 06:23:06;;;;;;;2.75;1.60;;;11.10;99.90;;;;;;5000449;28;20245;-65
2022/09/27 06:25:33;;;;;;;3.90;1.88;;;12.80;99.90;;;;;;5008995;28;20324;-66
2022/09/27 06:28:01;;;;;;;2.45;1.52;;;12.60;99.90;;;;;;5024890;28;20971;-66
2022/09/27 06:30:29;;;;;;;2.80;1.52;;;13.20;99.90;;;;;;4993154;28;20228;-66
2022/09/27 06:32:57;;;;;;;4.18;1.67;;;12.40;99.90;;;;;;5023839;28;20205;-65
2022/09/27 06:35:24;;;;;;;1.70;1.60;;;12.50;99.90;;;;;;5006439;28;20817;-65
2022/09/27 06:37:51;;;;;;;3.50;1.63;;;12.50;99.90;;;;;;5014868;28;20225;-66
2022/09/27 06:40:19;;;;;;;6.40;1.92;;;12.90;99.90;;;;;;4993499;28;20903;-66
2022/09/27 06:42:46;;;;;;;4.80;1.63;;;12.50;99.90;;;;;;5019700;28;20818;-67
2022/09/27 06:45:14;;;;;;;2.75;1.50;;;12.40;99.90;;;;;;4993852;28;20217;-66
2022/09/27 06:47:41;;;;;;;4.57;1.48;;;12.50;99.90;;;;;;5021694;28;20201;-66
2022/09/27 06:50:09;;;;;;;3.80;1.40;;;12.70;99.90;;;;;;5021478;28;20220;-66
2022/09/27 06:52:36;;;;;;;2.75;1.30;;;12.50;99.90;;;;;;5025215;28;20198;-66
2022/09/27 06:55:04;;;;;;;5.72;1.42;;;12.50;99.90;;;;;;5013143;28;20529;-66
2022/09/27 07:00:26;;;;;;;1.92;1.30;;;12.60;99.90;;;;;;4995952;28;20993;-67
2022/09/27 07:02:54;;;;;;;4.38;1.23;;;12.40;99.90;;;;;;5021072;28;20224;-66
2022/09/27 07:05:21;;;;;;;1.63;1.00;;;12.40;99.90;;;;;;5008951;28;20469;-67
2022/09/27 07:07:48;;;;;;;2.13;1.00;;;12.40;99.90;;;;;;5025614;28;21221;-67
2022/09/27 07:10:15;;;;;;;2.75;1.10;;;12.40;99.90;;;;;;5011515;28;20208;-67
2022/09/27 07:12:46;;;;;;;2.25;1.35;;;12.40;99.90;;;;;;5016268;28;20851;-67
2022/09/27 07:15:13;;;;;;;2.92;1.70;;;12.40;99.90;;;;;;5019493;28;20271;-67
2022/09/27 07:17:41;;;;;;;2.00;1.00;;;12.50;99.90;;;;;;4996613;28;20208;-67
2022/09/27 07:20:09;;;;;;;1.95;0.80;;;12.60;99.90;;;;;;5035792;28;20753;-66
2022/09/27 07:22:41;;;;;;;2.55;0.90;;;12.80;99.90;;;;;;5045282;28;20216;-68
2022/09/27 07:25:08;;;;;;;2.33;0.90;;;12.60;99.90;;;;;;5034099;28;20222;-66
2022/09/27 07:27:35;;;;;;;2.50;0.90;;;13.20;99.90;;;;;;5040334;28;20292;-67
2022/09/27 07:30:02;;;;;;;0.55;0.55;;;12.50;99.90;;;;;;5025444;28;20212;-67
2022/09/27 07:32:29;;;;;;;3.03;0.75;;;12.60;99.90;;;;;;5011041;28;20786;-66
2022/09/27 07:34:57;;;;;;;0.80;0.80;;;12.50;99.90;;;;;;5044826;28;20212;-66
2022/09/27 07:37:24;;;;;;;0.80;0.50;;;12.60;99.90;;;;;;5042507;28;20271;-67
2022/09/27 07:39:51;;;;;;;1.80;0.88;;;12.50;99.90;;;;;;5050763;28;20231;-66
2022/09/27 07:42:17;;;;;;;2.35;0.85;;;12.50;99.90;;;;;;5035490;28;20226;-67
2022/09/27 07:44:44;;;;;;;0.75;0.75;;;12.60;99.90;;;;;;5037634;28;21494;-66
2022/09/27 07:47:11;;;;;;;2.15;0.77;;;14.80;99.90;;;;;;5015677;28;20235;-67
2022/09/27 07:49:38;;;;;;;1.33;0.65;;;12.60;99.90;;;;;;5045069;28;20381;-66
2022/09/27 07:52:06;;;;;;;2.55;0.47;;;12.40;99.90;;;;;;5047120;28;20197;-68
2022/09/27 07:54:33;;;;;;;1.30;0.55;;;12.60;99.90;;;;;;5049507;28;20203;-66
2022/09/27 07:57:02;;;;;;;1.33;0.88;;;12.60;99.90;;;;;;5033945;28;20227;-66
2022/09/27 07:59:29;;;;;;;0.80;0.57;;;12.60;99.90;;;;;;5035826;28;20778;-67
2022/09/27 08:01:55;;;;;;;2.20;0.82;;;12.50;99.90;;;;;;5047537;28;20203;-65
2022/09/27 08:04:22;;;;;;;1.52;0.73;;;12.50;99.90;;;;;;5005861;28;20234;-66
2022/09/27 08:06:49;;;;;;;1.52;0.80;;;12.60;99.90;;;;;;5048279;28;20544;-67
2022/09/27 08:09:17;;;;;;;0.50;0.50;;;12.50;99.90;;;;;;5040061;28;20209;-66
2022/09/27 08:11:44;;;;;;;0.95;0.60;;;12.60;99.90;;;;;;5036876;28;20200;-67
2022/09/27 08:14:13;;;;;;;1.80;0.63;;;12.60;99.90;;;;;;5042756;28;20347;-67
2022/09/27 08:16:40;;;;;;;1.48;0.57;;;12.60;99.90;;;;;;5037088;28;20254;-67
2022/09/27 08:19:07;;;;;;;1.35;0.77;;;;;;;;;;5028921;28;20247;-67
2022/09/27 08:21:34;;;;;;;2.80;0.70;;;12.50;99.90;;;;;;5035570;28;20256;-66
2022/09/27 08:24:02;;;;;;;0.88;0.70;;;12.70;99.90;;;;;;5041046;28;20229;-66
2022/09/27 08:26:31;;;;;;;0.55;0.55;;;12.60;99.90;;;;;;5046764;28;20435;-67
2022/09/27 08:28:57;;;;;;;0.52;0.52;;;12.60;99.90;;;;;;5033564;28;20690;-66
2022/09/27 08:31:24;;;;;;;0.98;0.65;;;;;;;;;;5033350;28;20316;-68
2022/09/27 08:33:51;;;;;;;0.77;0.57;;;12.60;99.90;;;;;;5049962;28;20215;-67
2022/09/27 08:36:20;;;;;;;0.77;0.68;;;12.60;99.90;;;;;;5005057;28;20707;-66
2022/09/27 08:38:48;;;;;;;3.35;0.90;;;12.60;99.90;;;;;;5044347;28;20710;-67
2022/09/27 08:41:28;;;;;;;1.95;0.70;;;12.60;99.90;;;;;;5042581;28;20799;-67
2022/09/27 08:44:11;;;;;;;3.58;0.80;;;12.90;99.90;;;;;;5032314;28;20286;-67
2022/09/27 08:46:47;;;;;;;1.05;0.65;;;12.70;99.90;;;;;;5030791;28;20201;-66
2022/09/27 08:49:18;;;;;;;2.00;0.68;;;12.70;99.90;;;;;;5045177;28;20216;-67
2022/09/27 08:51:49;;;;;;;1.75;0.80;;;12.70;99.90;;;;;;5013103;28;20197;-67
2022/09/27 08:54:20;;;;;;;2.03;0.70;;;12.70;99.90;;;;;;5040984;28;20205;-67
2022/09/27 08:56:48;;;;;;;2.33;0.65;;;;;;;;;;5046880;28;20200;-66
2022/09/27 08:59:20;;;;;;;3.70;0.90;;;13.10;99.90;;;;;;5027643;28;20219;-67
2022/09/27 09:01:48;;;;;;;1.70;0.60;;;;;;;;;;5050197;28;20586;-66
2022/09/27 09:04:19;;;;;;;2.65;0.75;;;11.40;99.90;;;;;;5023932;28;20224;-66
2022/09/27 09:06:55;;;;;;;1.63;0.70;;;12.60;99.90;;;;;;5017706;28;20209;-67
2022/09/27 09:09:33;;;;;;;1.42;0.70;;;12.50;99.90;;;;;;5043345;28;20617;-66
2022/09/27 09:15:14;;;;;;;2.60;0.75;;;12.60;99.90;;;;;;5033560;28;20652;-67
2022/09/27 09:18:03;;;;;;;2.58;0.82;;;12.70;99.90;;;;;;5035339;28;20717;-67
2022/09/27 09:20:41;;;;;;;1.20;0.65;;;12.50;99.90;;;;;;5027023;28;20232;-66
2022/09/27 09:23:31;;;;;;;6.13;0.70;;;12.50;99.90;;;;;;4999563;28;20206;-67
2022/09/27 09:26:05;;;;;;;1.95;0.60;;;12.60;99.90;;;;;;5025708;28;20201;-66
2022/09/27 09:28:46;;;;;;;1.95;0.70;;;12.60;99.90;;;;;;5011764;28;20524;-66
2022/09/27 09:31:24;;;;;;;1.63;0.60;;;12.60;99.90;;;;;;5008761;28;20614;-67
2022/09/27 09:33:55;;;;;;;0.95;0.63;;;12.40;99.90;;;;;;5006999;28;20219;-66
2022/09/27 09:36:27;;;;;;;0.88;0.60;;;12.50;99.90;;;;;;5010472;28;20817;-66
2022/09/27 09:38:58;;;;;;;3.50;0.70;;;12.40;99.90;;;;;;4999282;28;20682;-67
2022/09/27 09:41:31;;;;;;;3.92;0.77;;;12.40;99.90;;;;;;5020442;28;20259;-67
2022/09/27 09:44:02;;;;;;;1.23;0.82;;;12.40;99.90;;;;;;5030259;28;20229;-66
2022/09/27 09:46:36;;;;;;;1.40;0.68;;;12.40;99.90;;;;;;5015427;28;20205;-66
2022/09/27 09:49:11;;;;;;;5.25;0.93;;;12.60;99.90;;;;;;5014091;28;20209;-67
2022/09/27 09:51:41;;;;;;;2.92;0.88;;;12.50;99.90;;;;;;5019160;28;20205;-66
2022/09/27 09:54:15;;;;;;;0.60;0.60;;;12.50;99.90;;;;;;5001732;28;20575;-67
2022/09/27 09:56:47;;;;;;;2.28;0.90;;;12.50;99.90;;;;;;5019717;28;20196;-66
2022/09/27 09:59:18;;;;;;;2.17;1.00;;;12.60;99.90;;;;;;5026681;28;20197;-66
2022/09/27 10:01:47;;;;;;;5.88;0.80;;;12.40;99.90;;;;;;5009345;28;20211;-67
2022/09/27 10:04:20;;;;;;;3.38;0.93;;;13.80;99.90;;;;;;5009896;28;20835;-66
2022/09/27 10:06:47;;;;;;;3.08;0.75;;;12.50;99.90;;;;;;5021170;28;20892;-66
2022/09/27 10:09:16;;;;;;;1.95;0.80;;;12.50;99.90;;;;;;4994503;28;21120;-66
2022/09/27 10:11:46;;;;;;;2.83;0.80;;;12.50;99.90;;;;;;5019750;28;20202;-66
2022/09/27 10:14:15;;;;;;;1.80;0.88;;;12.70;99.90;;;;;;5027779;28;20694;-66
2022/09/27 10:16:46;;;;;;;3.13;0.77;;;12.60;99.90;;;;;;5008838;28;21115;-66
2022/09/27 10:19:18;;;;;;;1.48;0.80;;;12.50;99.90;;;;;;5022907;28;20998;-67
2022/09/27 10:21:48;;;;;;;3.30;1.00;;;12.50;99.90;;;;;;5048326;28;20573;-67
2022/09/27 10:24:16;;;;;;;1.83;0.80;;;12.60;99.90;;;;;;5032779;28;20231;-67
2022/09/27 10:26:45;;;;;;;1.75;0.50;;;12.70;99.90;;;;;;5028528;28;20205;-66
2022/09/27 10:29:30;;;;;;;1.80;0.80;;;12.60;99.90;;;;;;5030278;28;20224;-66
2022/09/27 10:31:58;;;;;;;2.33;0.80;;;12.40;99.90;;;;;;5047998;28;20748;-66
2022/09/27 10:34:31;;;;;;;2.00;0.68;;;12.50;99.90;;;;;;5021103;28;20212;-67
2022/09/27 10:37:05;;;;;;;3.45;0.70;;;12.70;99.90;;;;;;5045178;28;20205;-68
2022/09/27 10:39:32;;;;;;;4.78;0.93;;;12.50;99.90;;;;;;5015208;28;21438;-67
2022/09/27 10:41:58;;;;;;;1.27;0.80;;;12.40;99.90;;;;;;5047193;28;20595;-66
2022/09/27 10:44:27;;;;;;;0.60;0.60;;;12.50;99.90;;;;;;5039960;28;20218;-66
2022/09/27 10:46:56;;;;;;;4.53;2.10;;;12.50;99.90;;;;;;5046028;28;20197;-66
2022/09/27 10:49:29;;;;;;;4.05;2.80;;;12.50;99.90;;;;;;5022402;28;20200;-66
2022/09/27 10:51:59;;;;;;;3.97;2.10;;;12.50;99.90;;;;;;5046660;28;20203;-66
2022/09/27 10:54:28;;;;;;;3.20;1.33;;;12.50;99.90;;;;;;5043047;28;20209;-66
2022/09/27 10:56:58;;;;;;;6.18;1.63;;;12.60;99.90;;;;;;4998748;28;20225;-66
2022/09/27 11:02:20;;;;;;;3.50;1.63;;;12.30;99.90;;;;;;5040425;28;20232;-66
2022/09/27 11:05:04;;;;;;;5.43;1.92;;;12.50;99.90;;;;;;5032509;28;20228;-66
2022/09/27 11:07:31;;;;;;;2.08;1.60;;;12.50;99.90;;;;;;5033029;28;20425;-66
2022/09/27 11:10:01;;;;;;;4.95;1.67;;;12.70;99.90;;;;;;5048993;28;20197;-66
2022/09/27 11:12:29;;;;;;;4.93;1.67;;;12.80;99.90;;;;;;5011143;28;20220;-66
2022/09/27 11:15:01;;;;;;;2.55;1.65;;;12.80;99.90;;;;;;5045177;28;20324;-66
2022/09/27 11:17:35;;;;;;;3.85;1.90;;;12.90;99.90;;;;;;5031967;28;20209;-66
2022/09/27 11:20:16;;;;;;;7.63;2.97;;;12.90;99.90;;;;;;5020021;28;20226;-66
2022/09/27 11:23:12;;;;;;;4.57;2.47;;;13.00;99.90;;;;;;5011961;28;20314;-66
2022/09/27 11:25:46;;;;;;;3.72;2.55;;;9.60;99.90;;;;;;4999937;28;20240;-67
2022/09/27 11:28:28;;;;;;;3.25;2.00;;;13.10;99.90;;;;;;5011421;28;20212;-66
2022/09/27 11:31:04;;;;;;;1.65;1.33;;;12.90;99.90;;;;;;5023517;28;20295;-66
2022/09/27 11:34:04;;;;;;;3.15;1.50;;;13.30;99.90;;;;;;5001810;28;20280;-66
2022/09/27 11:36:48;;;;;;;2.60;1.35;;;13.00;99.90;;;;;;5021801;28;20201;-66
2022/09/27 11:39:25;;;;;;;7.18;1.50;;;13.10;99.90;;;;;;5026943;28;20622;-67
2022/09/27 11:42:11;;;;;;;2.65;1.48;;;13.00;99.90;;;;;;4994170;28;21092;-67
2022/09/27 11:44:54;;;;;;;1.77;1.35;;;13.00;99.90;;;;;;5018906;28;20225;-66
2022/09/27 11:47:31;;;;;;;2.08;1.60;;;13.10;99.90;;;;;;5027323;28;20202;-66
2022/09/27 11:50:38;;;;;;;1.58;0.90;;;13.20;99.90;;;;;;5010230;28;21037;-67
2022/09/27 11:53:20;;;;;;;1.75;1.02;;;13.00;99.90;;;;;;4992719;28;20572;-67
2022/09/27 11:55:55;;;;;;;3.50;0.98;;;12.90;99.90;;;;;;5022443;28;20205;-66
2022/09/27 11:58:36;;;;;;;1.52;0.90;;;13.00;99.90;;;;;;4983277;28;20217;-65
2022/09/27 12:01:16;;;;;;;2.85;0.90;;;12.80;99.90;;;;;;4983149;28;20223;-66
2022/09/27 12:04:12;;;;;;;5.45;1.30;;;12.30;99.90;;;;;;4974094;28;20708;-67
2022/09/27 12:06:49;;;;;;;3.15;1.08;;;12.90;99.90;;;;;;4985219;28;20237;-66
2022/09/27 12:09:20;;;;;;;6.22;1.23;;;12.90;99.90;;;;;;4992956;28;20201;-66
2022/09/27 12:11:52;;;;;;;0.90;0.57;;;12.80;99.90;;;;;;4979012;28;20206;-67
2022/09/27 12:14:34;;;;;;;1.33;0.30;;;12.70;99.90;;;;;;5007034;28;21872;-66
2022/09/27 12:17:05;;;;;;;0.82;0.43;;;12.80;99.90;;;;;;5001514;28;20225;-66
2022/09/27 12:19:36;;;;;;;1.33;0.70;;;12.70;99.90;;;;;;5012636;28;20272;-67
2022/09/27 12:22:07;;;;;;;1.55;0.60;;;13.90;99.90;;;;;;5014485;28;20212;-66
2022/09/27 12:24:35;;;;;;;0.57;0.50;;;12.60;99.90;;;;;;5012756;28;20455;-66
2022/09/27 12:27:08;;;;;;;1.50;0.68;;;12.60;99.90;;;;;;5014161;28;20681;-67
2022/09/27 12:29:40;;;;;;;1.17;0.60;;;12.60;99.90;;;;;;5007334;28;20798;-66
2022/09/27 12:32:14;;;;;;;0.80;0.50;;;12.50;99.90;;;;;;5018115;28;20225;-66
2022/09/27 12:34:49;;;;;;;0.57;0.50;;;12.60;99.90;;;;;;5032100;28;20220;-66
2022/09/27 12:37:21;;;;;;;2.47;0.70;;;12.60;99.90;;;;;;5016548;28;20207;-67
2022/09/27 12:39:55;;;;;;;1.88;0.65;;;12.60;99.90;;;;;;5019902;28;20220;-66
2022/09/27 12:42:25;;;;;;;0.85;0.40;;;12.20;99.90;;;;;;5006039;28;20601;-67
2022/09/27 12:44:52;;;;;;;0.82;0.77;;;12.80;99.90;;;;;;5041310;28;20224;-67
2022/09/27 12:47:40;;;;;;;3.00;0.70;;;12.70;99.90;;;;;;5025300;28;20472;-66
2022/09/27 12:50:14;;;;;;;0.60;0.57;;;12.70;99.90;;;;;;5009999;28;20220;-67
2022/09/27 12:52:44;;;;;;;5.03;0.90;;;12.80;99.90;;;;;;5011125;28;20267;-66
2022/09/27 12:55:53;;;;;;;3.20;0.82;;;12.80;99.90;;;;;;4981967;28;20236;-66
2022/09/27 12:58:47;;;;;;;1.77;0.60;;;12.80;99.90;;;;;;5006199;28;20706;-66
2022/09/27 13:01:20;;;;;;;0.82;0.68;;;;;;;;;;5013327;28;20599;-66
2022/09/27 13:04:06;;;;;;;2.55;0.93;;;12.70;99.90;;;;;;5033749;28;20228;-66
2022/09/27 13:06:57;;;;;;;1.23;0.80;;;12.70;99.90;;;;;;5018436;28;20221;-67
2022/09/27 13:09:51;;;;;;;2.15;1.00;;;12.90;99.90;;;;;;5020022;28;20228;-67
2022/09/27 13:12:23;;;;;;;2.25;1.17;;;12.90;99.90;;;;;;5029879;28;20236;-66
2022/09/27 13:14:58;;;;;;;3.35;1.10;;;12.90;99.90;;;;;;4998108;28;20267;-67
2022/09/27 13:17:33;;;;;;;3.05;1.20;;;12.90;99.90;;;;;;5025648;28;20252;-66
2022/09/27 13:20:43;;;;;;;2.13;1.13;;;12.90;99.90;;;;;;5016403;28;20239;-67